Time;durP1;ratioP1;P1;durP2;ratioP2;P2;SDS_P1;SDS_P2;PMS_P1;PMS_P2;Temp;Humidity;BMP_temperature;BMP_pressure;BME280_temperature;BME280_humidity;BME280_pressure;Samples;Min_cycle;Max_cycle;Signal;HPM_P1;HPM_P2
2023/05/13 00:01:15;;;;;;;14.60;7.23;;;;;;;11.10;55.13;100972.44;4204165;28;21711;-72
2023/05/13 00:03:43;;;;;;;17.70;7.27;;;;;;;11.14;55.09;100970.28;4208247;28;20543;-70
2023/05/13 00:06:09;;;;;;;18.07;7.67;;;;;;;11.19;54.69;100969.88;4199558;28;20318;-73
2023/05/13 00:08:36;;;;;;;16.87;7.33;;;;;;;11.23;54.22;100976.72;4196976;28;20295;-71
2023/05/13 00:11:03;;;;;;;16.07;7.33;;;;;;;11.40;53.73;100972.50;4209994;28;20246;-72
2023/05/13 00:13:30;;;;;;;22.87;6.93;;;;;;;11.32;54.87;100969.63;4211411;28;20247;-71
2023/05/13 00:15:56;;;;;;;21.90;7.53;;;;;;;11.31;54.12;100967.91;4208122;28;20236;-72
2023/05/13 00:18:23;;;;;;;18.23;7.17;;;;;;;11.35;53.71;100966.63;4206126;28;22699;-73
2023/05/13 00:20:49;;;;;;;19.80;7.80;;;;;;;11.30;54.62;100972.47;4228248;28;20864;-72
2023/05/13 00:23:16;;;;;;;22.63;7.80;;;;;;;11.26;54.12;100966.47;4199974;28;20236;-72
2023/05/13 00:25:45;;;;;;;16.07;7.87;;;;;;;11.31;54.26;100970.63;4210437;28;21237;-71
2023/05/13 00:28:13;;;;;;;16.50;7.47;;;;;;;11.17;55.02;100967.31;4204988;28;20256;-73
2023/05/13 00:30:44;;;;;;;19.13;8.23;;;;;;;11.09;55.09;100959.88;4215206;28;21255;-72
2023/05/13 00:33:11;;;;;;;20.00;8.20;;;;;;;11.19;54.47;100973.44;4212262;28;20407;-73
2023/05/13 00:35:37;;;;;;;18.40;7.90;;;;;;;11.21;54.52;100965.19;4207896;28;21651;-74
2023/05/13 00:38:04;;;;;;;18.80;7.43;;;;;;;11.15;55.46;100965.72;4203226;28;20430;-73
2023/05/13 00:40:31;;;;;;;17.73;8.17;;;;;;;10.97;56.19;100960.97;4208196;28;22386;-72
2023/05/13 00:42:57;;;;;;;16.53;7.80;;;;;;;10.93;56.36;100962.22;4198604;28;20885;-73
2023/05/13 00:45:24;;;;;;;17.50;8.23;;;;;;;10.88;57.11;100973.47;4197249;28;20308;-73
2023/05/13 00:47:50;;;;;;;21.97;7.47;;;;;;;10.91;56.28;100975.91;4205690;28;20406;-72
2023/05/13 00:50:17;;;;;;;18.67;7.00;;;;;;;10.93;55.77;100973.06;4207968;28;22239;-71
2023/05/13 00:52:43;;;;;;;15.83;7.13;;;;;;;10.99;55.80;100972.50;4204123;28;22979;-71
2023/05/13 00:55:10;;;;;;;21.47;7.70;;;;;;;11.10;55.40;100971.59;4208991;28;20252;-71
2023/05/13 00:57:39;;;;;;;18.80;8.23;;;;;;;10.94;56.08;100970.25;4204257;28;20325;-71
2023/05/13 01:00:06;;;;;;;18.87;7.80;;;;;;;10.82;57.42;100981.31;4208884;28;20228;-71
2023/05/13 01:02:53;;;;;;;18.30;8.07;;;;;;;10.70;58.90;100977.81;4213630;28;20278;-72
2023/05/13 01:05:30;;;;;;;18.50;8.53;;;;;;;10.65;58.94;100988.22;4205410;28;20278;-71
2023/05/13 01:08:19;;;;;;;16.43;8.20;;;;;;;10.61;59.07;100983.06;4209720;28;21176;-72
2023/05/13 01:10:49;;;;;;;17.00;7.60;;;;;;;10.58;59.50;100985.16;4214495;28;20250;-70
2023/05/13 01:13:27;;;;;;;14.27;8.33;;;;;;;10.56;59.76;100982.59;4207511;28;20229;-72
2023/05/13 01:16:03;;;;;;;20.07;8.00;;;;;;;10.55;59.41;100985.44;4205165;28;20239;-72
2023/05/13 01:18:36;;;;;;;26.10;8.57;;;;;;;10.49;58.69;100984.13;4195900;28;20308;-71
2023/05/13 01:21:04;;;;;;;23.10;8.33;;;;;;;10.43;59.94;100988.22;4209077;28;20299;-70
2023/05/13 01:23:30;;;;;;;21.40;8.70;;;;;;;10.43;59.56;100982.81;4220944;28;20236;-71
2023/05/13 01:25:57;;;;;;;15.83;8.10;;;;;;;10.48;59.62;100981.53;4207189;28;20315;-71
2023/05/13 01:28:23;;;;;;;16.70;8.40;;;;;;;10.46;58.33;100982.53;4216160;28;20866;-70
2023/05/13 01:30:50;;;;;;;14.13;7.93;;;;;;;10.46;58.65;100981.69;4215637;28;20303;-71
2023/05/13 01:33:17;;;;;;;22.13;8.87;;;;;;;10.61;56.97;100983.06;4205900;28;20242;-73
2023/05/13 01:35:45;;;;;;;17.27;7.60;;;;;;;10.64;57.00;100981.91;4199090;28;22083;-70
2023/05/13 01:38:14;;;;;;;20.60;8.20;;;;;;;10.60;57.38;100978.63;4207710;28;20227;-72
2023/05/13 01:40:40;;;;;;;20.03;8.13;;;;;;;10.60;57.71;100988.59;4211552;28;20229;-73
2023/05/13 01:43:07;;;;;;;23.53;8.70;;;;;;;10.45;58.25;100986.25;4210731;28;22259;-73
2023/05/13 01:45:34;;;;;;;17.53;8.67;;;;;;;10.32;59.32;100977.41;4216710;28;21343;-71
2023/05/13 01:48:00;;;;;;;24.30;8.43;;;;;;;10.15;60.17;100971.63;4212755;28;20307;-71
2023/05/13 01:50:27;;;;;;;18.97;8.30;;;;;;;10.24;59.61;100985.34;4210161;28;20414;-71
2023/05/13 01:52:53;;;;;;;21.70;7.80;;;;;;;10.25;59.76;100985.22;4214040;28;20630;-72
2023/05/13 01:55:20;;;;;;;19.57;8.07;;;;;;;10.21;59.95;100980.22;4202526;28;22783;-72
2023/05/13 01:57:47;;;;;;;18.70;8.67;;;;;;;10.26;59.83;100986.06;4213794;28;20269;-72
2023/05/13 02:00:14;;;;;;;19.83;9.33;;;;;;;10.24;59.71;100980.81;4220130;28;20231;-73
2023/05/13 02:02:40;;;;;;;19.97;9.10;;;;;;;10.41;59.47;100990.19;4212168;28;20252;-70
2023/05/13 02:05:07;;;;;;;23.30;8.80;;;;;;;10.38;59.89;100995.91;4196224;28;20244;-71
2023/05/13 02:07:34;;;;;;;19.33;8.00;;;;;;;10.33;60.12;100995.38;4214172;28;21665;-72
2023/05/13 02:10:00;;;;;;;19.57;8.37;;;;;;;10.25;61.05;100992.47;4208638;28;20282;-73
2023/05/13 02:12:27;;;;;;;17.27;8.43;;;;;;;10.17;61.30;100993.13;4205915;28;20655;-71
2023/05/13 02:14:54;;;;;;;25.10;8.73;;;;;;;10.13;61.39;100992.53;4209080;28;20235;-72
2023/05/13 02:17:21;;;;;;;22.07;9.33;;;;;;;10.11;61.87;100994.50;4197132;28;20308;-73
2023/05/13 02:19:48;;;;;;;27.17;10.10;;;;;;;10.11;61.98;100985.56;4225639;28;20257;-70
2023/05/13 02:22:15;;;;;;;25.70;9.53;;;;;;;10.13;62.18;101000.66;4203607;28;20235;-72
2023/05/13 02:24:41;;;;;;;21.33;9.10;;;;;;;10.18;62.04;101002.97;4211759;28;20235;-73
2023/05/13 02:27:11;;;;;;;21.57;9.10;;;;;;;10.12;62.44;101004.34;4197695;28;20721;-72
2023/05/13 02:29:37;;;;;;;19.77;8.57;;;;;;;10.04;62.66;101009.56;4215567;28;20237;-70
2023/05/13 02:32:04;;;;;;;25.47;8.97;;;;;;;10.09;62.58;101004.59;4216732;28;21627;-72
2023/05/13 02:34:31;;;;;;;21.33;8.60;;;;;;;9.98;62.79;101005.50;4212922;28;20270;-72
2023/05/13 02:36:58;;;;;;;17.17;8.23;;;;;;;9.87;62.34;101005.56;4230177;28;20244;-74
2023/05/13 02:39:24;;;;;;;18.73;8.93;;;;;;;9.87;62.34;100997.47;4219710;28;22845;-71
2023/05/13 02:41:50;;;;;;;19.33;8.80;;;;;;;9.98;61.73;101008.22;4210376;28;25625;-73
2023/05/13 02:44:17;;;;;;;19.33;9.50;;;;;;;10.02;61.43;100997.16;4214037;28;20656;-70
2023/05/13 02:46:44;;;;;;;20.17;8.50;;;;;;;10.03;61.32;100993.47;4208260;28;23498;-73
2023/05/13 02:49:10;;;;;;;19.63;8.50;;;;;;;10.09;61.34;100993.78;4202219;28;20409;-71
2023/05/13 02:51:37;;;;;;;19.70;9.10;;;;;;;10.14;61.54;101001.50;4229745;28;20303;-70
2023/05/13 02:54:05;;;;;;;24.83;9.50;;;;;;;10.14;61.60;101004.22;4207380;28;21622;-72
2023/05/13 02:56:31;;;;;;;19.50;8.77;;;;;;;10.03;61.85;101013.25;4213153;28;20295;-71
2023/05/13 02:58:58;;;;;;;27.60;9.93;;;;;;;10.03;61.61;100999.72;4216369;28;21464;-71
2023/05/13 03:01:25;;;;;;;20.20;9.47;;;;;;;10.11;61.89;101018.03;4211100;28;20543;-71
2023/05/13 03:03:52;;;;;;;15.03;7.83;;;;;;;10.25;61.51;101011.41;4196597;28;20262;-71
2023/05/13 03:06:18;;;;;;;20.77;8.97;;;;;;;10.36;61.46;101010.50;4200289;28;22107;-71
2023/05/13 03:08:45;;;;;;;21.03;9.43;;;;;;;10.36;61.73;101005.94;4217408;28;20248;-73
2023/05/13 03:11:11;;;;;;;25.37;9.77;;;;;;;10.31;61.85;100986.53;4204239;28;21612;-71
2023/05/13 03:13:38;;;;;;;27.90;10.23;;;;;;;10.40;61.37;101002.00;4214586;28;20235;-70
2023/05/13 03:16:04;;;;;;;29.23;9.70;;;;;;;10.34;61.88;101005.22;4218451;28;21797;-72
2023/05/13 03:18:31;;;;;;;23.30;9.70;;;;;;;10.29;63.15;101008.31;4210363;28;20231;-70
2023/05/13 03:20:58;;;;;;;22.00;8.90;;;;;;;10.32;62.81;101007.19;4210956;28;21962;-70
2023/05/13 03:23:24;;;;;;;20.97;10.03;;;;;;;10.08;65.24;101011.00;4215288;28;21820;-70
2023/05/13 03:25:51;;;;;;;24.80;9.93;;;;;;;9.96;65.29;101006.63;4221663;28;20374;-71
2023/05/13 03:28:17;;;;;;;23.80;10.60;;;;;;;9.92;65.87;101006.03;4228361;28;20237;-71
2023/05/13 03:30:44;;;;;;;29.20;10.30;;;;;;;10.07;65.40;101009.31;4211910;28;20266;-72
2023/05/13 03:33:11;;;;;;;19.30;9.53;;;;;;;10.27;64.87;100996.75;4233529;28;21453;-72
2023/05/13 03:35:37;;;;;;;23.60;9.67;;;;;;;10.52;64.04;100989.25;4229960;28;25081;-71
2023/05/13 03:38:04;;;;;;;32.47;10.47;;;;;;;10.65;63.86;100991.75;4223282;28;20581;-70
2023/05/13 03:40:30;;;;;;;21.90;10.30;;;;;;;10.66;63.98;101009.72;4206130;28;21749;-70
2023/05/13 03:42:57;;;;;;;18.50;9.93;;;;;;;10.72;62.46;100994.81;4203601;28;20228;-70
2023/05/13 03:45:23;;;;;;;26.87;10.17;;;;;;;10.65;62.17;100994.47;4208552;28;20306;-70
2023/05/13 03:47:50;;;;;;;24.10;10.37;;;;;;;10.63;62.29;101004.56;4219021;28;21036;-73
2023/05/13 03:50:16;;;;;;;22.53;10.40;;;;;;;10.65;62.47;101007.16;4208110;28;20975;-71
2023/05/13 03:52:43;;;;;;;25.87;10.80;;;;;;;10.78;62.42;101007.81;4216251;28;20232;-70
2023/05/13 03:55:13;;;;;;;21.23;10.33;;;;;;;10.94;62.08;101010.88;4227728;28;20332;-71
2023/05/13 03:57:47;;;;;;;23.40;10.00;;;;;;;10.96;62.25;101016.16;4206506;28;20383;-71
2023/05/13 04:00:14;;;;;;;24.53;11.57;;;;;;;10.96;62.36;101010.72;4192394;28;20626;-70
2023/05/13 04:02:41;;;;;;;29.33;10.60;;;;;;;11.05;62.10;101025.31;4212003;28;20665;-73
2023/05/13 04:05:08;;;;;;;22.10;11.53;;;;;;;10.98;62.81;101016.88;4211132;28;20236;-73
2023/05/13 04:07:35;;;;;;;25.13;11.07;;;;;;;10.79;63.08;101012.22;4219126;28;21761;-71
2023/05/13 04:10:01;;;;;;;20.87;10.83;;;;;;;10.83;63.17;101021.78;4208006;28;20239;-70
2023/05/13 04:12:29;;;;;;;23.07;11.53;;;;;;;10.77;63.81;101019.63;4228220;28;22207;-73
2023/05/13 04:14:56;;;;;;;26.87;10.70;;;;;;;10.76;64.03;101020.59;4216389;28;20407;-70
2023/05/13 04:17:22;;;;;;;28.37;12.07;;;;;;;10.77;64.17;101027.75;4209672;28;20296;-70
2023/05/13 04:19:52;;;;;;;24.33;11.57;;;;;;;11.03;63.27;101011.91;4208005;28;21607;-71
2023/05/13 04:22:20;;;;;;;20.77;10.80;;;;;;;11.25;62.72;101023.53;4206434;28;20236;-70
2023/05/13 04:24:46;;;;;;;29.43;11.67;;;;;;;11.46;62.03;101030.72;4207668;28;20605;-71
2023/05/13 04:27:13;;;;;;;24.00;11.17;;;;;;;11.59;61.89;101017.78;4218758;28;20291;-70
2023/05/13 04:29:39;;;;;;;28.67;11.73;;;;;;;11.56;61.34;101023.47;4222155;28;20626;-70
2023/05/13 04:32:06;;;;;;;33.67;12.00;;;;;;;11.42;62.09;101030.13;4202229;28;20827;-73
2023/05/13 04:34:33;;;;;;;25.37;11.20;;;;;;;11.60;61.69;101030.31;4208176;28;22276;-73
2023/05/13 04:36:59;;;;;;;27.10;11.47;;;;;;;11.87;61.25;101035.06;4204830;28;20244;-69
2023/05/13 04:39:26;;;;;;;21.87;11.27;;;;;;;12.22;59.93;101029.28;4205476;28;20670;-73
2023/05/13 04:41:52;;;;;;;26.77;11.20;;;;;;;12.34;57.95;101033.53;4211970;28;20544;-73
2023/05/13 04:44:19;;;;;;;22.07;10.93;;;;;;;12.32;58.60;101036.41;4216167;28;20315;-72
2023/05/13 04:46:45;;;;;;;20.73;10.97;;;;;;;12.46;57.94;101026.09;4215713;28;20286;-71
2023/05/13 04:49:12;;;;;;;26.33;11.67;;;;;;;12.62;57.72;101039.06;4206292;28;20310;-71
2023/05/13 04:51:39;;;;;;;24.93;12.07;;;;;;;12.89;57.01;101045.59;4214541;28;20228;-71
2023/05/13 04:54:06;;;;;;;23.57;10.90;;;;;;;13.04;55.25;101045.97;4212332;28;21970;-70
2023/05/13 04:56:32;;;;;;;26.73;10.50;;;;;;;13.15;55.46;101053.94;4215578;28;20418;-70
2023/05/13 04:58:59;;;;;;;27.60;11.60;;;;;;;13.18;55.09;101048.19;4210931;28;20358;-63
2023/05/13 05:01:25;;;;;;;25.10;11.13;;;;;;;13.31;55.09;101054.16;4215370;28;20307;-62
2023/05/13 05:03:52;;;;;;;24.70;11.13;;;;;;;13.37;55.22;101057.28;4212837;28;20239;-63
2023/05/13 05:06:20;;;;;;;24.93;10.67;;;;;;;13.37;54.55;101040.97;4214349;28;20315;-64
2023/05/13 05:08:47;;;;;;;27.87;11.93;;;;;;;13.41;54.56;101053.28;4207948;28;20422;-65
2023/05/13 05:11:14;;;;;;;20.90;10.70;;;;;;;13.36;53.92;101055.56;4211210;28;20241;-63
2023/05/13 05:13:40;;;;;;;24.77;12.53;;;;;;;13.71;53.77;101057.56;4213872;28;20228;-63
2023/05/13 05:16:07;;;;;;;24.30;11.27;;;;;;;13.82;53.72;101055.63;4212641;28;20301;-64
2023/05/13 05:18:39;;;;;;;29.27;11.47;;;;;;;14.10;52.01;101045.53;4208233;28;20659;-63
2023/05/13 05:21:06;;;;;;;20.00;10.07;;;;;;;14.20;52.42;101050.91;4211178;28;21860;-64
2023/05/13 05:23:33;;;;;;;21.73;11.17;;;;;;;14.29;52.89;101051.84;4207165;28;20384;-64
2023/05/13 05:26:00;;;;;;;22.57;11.50;;;;;;;14.28;52.55;101040.06;4215039;28;20300;-64
2023/05/13 05:28:38;;;;;;;27.70;11.80;;;;;;;14.55;52.79;101032.81;4211545;28;20250;-63
2023/05/13 05:31:05;;;;;;;23.17;12.03;;;;;;;14.87;51.44;101043.09;4217673;28;22836;-64
2023/05/13 05:33:32;;;;;;;23.07;11.60;;;;;;;15.28;50.23;101044.34;4213269;28;22293;-62
2023/05/13 05:35:58;;;;;;;26.57;12.47;;;;;;;15.33;50.16;101047.44;4211165;28;20237;-64
2023/05/13 05:38:25;;;;;;;26.10;11.70;;;;;;;15.28;50.23;101052.53;4217193;28;22987;-65
2023/05/13 05:40:52;;;;;;;23.40;11.53;;;;;;;15.51;49.80;101053.66;4214948;28;20626;-64
2023/05/13 05:43:19;;;;;;;21.27;10.97;;;;;;;15.98;48.79;101054.13;4207213;28;25311;-63
2023/05/13 05:45:45;;;;;;;22.43;10.97;;;;;;;16.70;45.66;101047.16;4217380;28;21796;-64
2023/05/13 05:48:12;;;;;;;24.47;10.53;;;;;;;17.02;44.49;101049.03;4210528;28;21301;-63
2023/05/13 05:50:40;;;;;;;24.97;10.47;;;;;;;17.62;43.32;101054.97;4213171;28;23575;-65
2023/05/13 05:53:06;;;;;;;22.70;10.80;;;;;;;18.30;41.34;101052.50;4224084;28;23066;-63
2023/05/13 05:55:33;;;;;;;18.40;9.80;;;;;;;19.02;40.19;101054.94;4218126;28;21615;-65
2023/05/13 05:58:04;;;;;;;21.77;9.93;;;;;;;20.69;37.16;101048.66;4215744;28;20314;-65
2023/05/13 06:00:31;;;;;;;27.67;11.13;;;;;;;22.26;34.46;101042.63;4258760;28;20235;-64
2023/05/13 06:02:58;;;;;;;26.07;9.73;;;;;;;23.23;32.67;101042.19;4232604;28;20292;-65
2023/05/13 06:05:25;;;;;;;22.30;10.23;;;;;;;23.27;32.35;101043.44;4211949;28;20229;-64
2023/05/13 06:07:52;;;;;;;23.27;11.70;;;;;;;23.05;32.30;101040.06;4206652;28;20244;-65
2023/05/13 06:10:18;;;;;;;20.57;10.10;;;;;;;23.50;32.39;101041.25;4198387;28;22898;-65
2023/05/13 06:12:45;;;;;;;26.40;11.70;;;;;;;25.41;28.91;101037.44;4211419;28;26169;-65
2023/05/13 06:15:12;;;;;;;17.33;8.73;;;;;;;24.86;29.17;101045.69;4208550;28;20306;-65
2023/05/13 06:17:39;;;;;;;18.90;9.30;;;;;;;25.40;28.11;101043.22;4206880;28;20414;-67
2023/05/13 06:20:06;;;;;;;23.30;9.00;;;;;;;25.73;27.66;101044.72;4215936;28;20245;-65
2023/05/13 06:22:32;;;;;;;15.93;8.00;;;;;;;26.60;26.20;101043.44;4216032;28;20307;-66
2023/05/13 06:24:59;;;;;;;16.33;7.57;;;;;;;28.24;23.26;101039.75;4193583;28;20260;-66
2023/05/13 06:27:25;;;;;;;16.55;7.97;;;;;;;28.70;23.52;101038.88;4218537;28;21182;-66
2023/05/13 06:29:52;;;;;;;22.23;8.73;;;;;;;27.44;24.64;101036.78;4229124;28;22932;-66
2023/05/13 06:32:19;;;;;;;14.40;7.90;;;;;;;26.22;26.27;101041.91;4243132;28;20659;-66
2023/05/13 06:34:45;;;;;;;23.27;10.18;;;;;;;26.50;25.76;101043.19;4227980;28;20583;-65
2023/05/13 06:37:14;;;;;;;16.92;8.13;;;;;;;27.99;24.54;101043.72;4261205;28;20433;-66
2023/05/13 06:39:41;;;;;;;19.45;8.32;;;;;;;29.46;22.91;101051.38;4237437;28;20239;-65
2023/05/13 06:42:08;;;;;;;17.98;8.10;;;;;;;29.93;22.41;101044.41;4242059;28;20796;-63
2023/05/13 06:44:34;;;;;;;14.18;7.05;;;;;;;29.42;21.81;101045.47;4246363;28;20307;-65
2023/05/13 06:47:04;;;;;;;18.23;8.27;;;;;;;29.08;22.47;101042.78;4215986;28;20236;-64
2023/05/13 06:49:32;;;;;;;17.30;7.45;;;;;;;30.57;20.82;101040.84;4220249;28;20318;-65
2023/05/13 06:51:58;;;;;;;18.73;7.47;;;;;;;29.55;21.10;101049.84;4236415;28;20805;-66
2023/05/13 06:54:26;;;;;;;17.20;7.00;;;;;;;27.11;23.97;101040.22;4217942;28;20382;-65
2023/05/13 06:56:54;;;;;;;13.70;6.40;;;;;;;28.71;21.75;101041.41;4184095;28;20235;-65
2023/05/13 06:59:21;;;;;;;14.07;6.97;;;;;;;29.53;21.08;101046.44;4218287;28;20300;-66
2023/05/13 07:01:48;;;;;;;15.18;5.88;;;;;;;28.86;20.85;101045.50;4244430;28;20475;-67
2023/05/13 07:04:15;;;;;;;9.30;6.07;;;;;;;30.37;19.71;101026.69;4210991;28;25032;-65
2023/05/13 07:06:42;;;;;;;12.70;6.28;;;;;;;29.31;21.67;101040.88;4201833;28;20291;-64
2023/05/13 07:09:08;;;;;;;14.63;6.68;;;;;;;29.52;20.63;101037.25;4197768;28;26157;-66
2023/05/13 07:11:35;;;;;;;15.35;5.05;;;;;;;30.48;19.33;101039.63;4258827;28;20298;-64
2023/05/13 07:14:02;;;;;;;16.63;5.07;;;;;;;31.69;18.79;101029.75;4202834;28;20264;-65
2023/05/13 07:16:29;;;;;;;13.80;5.10;;;;;;;30.29;20.31;101033.63;4216050;28;21198;-66
2023/05/13 07:18:55;;;;;;;9.20;4.82;;;;;;;30.56;20.06;101033.56;4213003;28;20619;-67
2023/05/13 07:21:22;;;;;;;13.55;4.88;;;;;;;31.81;17.95;101038.78;4225867;28;20223;-66
2023/05/13 07:23:48;;;;;;;11.02;4.65;;;;;;;30.03;19.28;101036.16;4222231;28;20920;-66
2023/05/13 07:26:15;;;;;;;11.43;4.65;;;;;;;30.94;18.32;101039.16;4216045;28;20238;-65
2023/05/13 07:28:42;;;;;;;13.02;4.32;;;;;;;29.18;19.68;101040.13;4231286;28;20227;-64
2023/05/13 07:31:09;;;;;;;19.00;7.63;;;;;;;28.86;19.39;101035.19;4215950;28;22128;-65
2023/05/13 07:33:35;;;;;;;13.98;5.63;;;;;;;28.21;20.10;101039.41;4219231;28;20249;-66
2023/05/13 07:36:02;;;;;;;6.15;3.83;;;;;;;27.32;20.54;101041.50;4248592;28;21786;-70
2023/05/13 07:38:29;;;;;;;11.48;3.42;;;;;;;26.39;21.66;101031.00;4204337;28;20389;-67
2023/05/13 07:40:55;;;;;;;5.55;3.22;;;;;;;25.42;22.06;101030.84;4205353;28;20410;-66
2023/05/13 07:43:26;;;;;;;12.52;3.70;;;;;;;24.80;23.09;101036.38;4208155;28;20319;-66
2023/05/13 07:45:53;;;;;;;8.45;3.25;;;;;;;24.58;23.36;101030.38;4226314;28;20576;-66
2023/05/13 07:48:19;;;;;;;9.30;3.47;;;;;;;23.85;23.66;101022.34;4228413;28;20238;-49
2023/05/13 07:50:46;;;;;;;6.53;3.30;;;;;;;24.42;24.23;101027.09;4228093;28;23076;-64
2023/05/13 07:53:13;;;;;;;7.90;3.67;;;;;;;24.55;24.28;101020.59;4212412;28;21210;-63
2023/05/13 07:55:40;;;;;;;8.68;3.50;;;;;;;24.85;24.10;101025.47;4217337;28;20262;-63
2023/05/13 07:58:06;;;;;;;8.60;3.30;;;;;;;24.67;24.40;101027.09;4221408;28;20232;-69
2023/05/13 08:00:33;;;;;;;9.82;3.83;;;;;;;23.83;24.61;101023.66;4214557;28;22135;-64
2023/05/13 08:03:00;;;;;;;14.00;3.72;;;;;;;23.28;24.88;101024.97;4218850;28;22515;-65
2023/05/13 08:05:27;;;;;;;11.83;4.83;;;;;;;24.04;26.09;101031.63;4198239;28;20232;-64
2023/05/13 08:07:53;;;;;;;11.67;3.70;;;;;;;24.87;24.25;101017.78;4230313;28;21907;-65
2023/05/13 08:10:20;;;;;;;7.10;3.90;;;;;;;24.93;24.77;101021.53;4208645;28;21482;-66
2023/05/13 08:12:51;;;;;;;9.10;4.13;;;;;;;24.57;24.28;101012.94;4211283;28;20229;-64
2023/05/13 08:15:17;;;;;;;11.40;4.37;;;;;;;24.97;24.56;101025.56;4217540;28;22677;-64
2023/05/13 08:17:44;;;;;;;8.03;3.60;;;;;;;25.09;25.26;101028.41;4223113;28;20259;-63
2023/05/13 08:20:11;;;;;;;7.43;3.13;;;;;;;25.18;23.41;101012.31;4220564;28;25055;-64
2023/05/13 08:22:37;;;;;;;9.17;3.13;;;;;;;25.11;24.31;101009.66;4240149;28;20296;-62
2023/05/13 08:25:06;;;;;;;7.30;2.95;;;;;;;24.53;23.57;101018.06;4289741;28;20223;-65
2023/05/13 08:27:33;;;;;;;10.10;3.90;;;;;;;23.79;25.56;101017.72;4250819;28;20301;-68
2023/05/13 08:30:00;;;;;;;9.53;3.17;;;;;;;23.42;25.82;101011.91;4234011;28;20626;-68
2023/05/13 08:32:26;;;;;;;8.75;3.50;;;;;;;23.83;25.23;101016.19;4286909;28;20236;-64
2023/05/13 08:34:53;;;;;;;7.35;3.40;;;;;;;23.71;24.91;101009.69;4271595;28;20270;-67
2023/05/13 08:37:20;;;;;;;8.47;3.00;;;;;;;23.65;25.46;101013.31;4275701;28;22895;-66
2023/05/13 08:39:46;;;;;;;6.97;3.58;;;;;;;23.67;25.83;101013.94;4277184;28;20238;-64
2023/05/13 08:42:17;;;;;;;13.83;3.03;;;;;;;23.34;26.14;101010.25;4277272;28;20223;-65
2023/05/13 08:44:45;;;;;;;10.17;3.07;;;;;;;22.97;25.93;101014.59;4249559;28;21923;-65
2023/05/13 08:47:25;;;;;;;7.97;3.03;;;;;;;23.47;26.47;101017.66;4227743;28;20354;-63
2023/05/13 08:49:51;;;;;;;7.07;2.90;;;;;;;23.49;25.65;101014.66;4255541;28;21184;-64
2023/05/13 08:52:19;;;;;;;7.80;2.50;;;;;;;23.81;23.81;101014.72;4209535;28;20316;-68
2023/05/13 08:54:46;;;;;;;5.23;2.40;;;;;;;23.67;23.96;101008.41;4227771;28;22903;-62
2023/05/13 08:57:13;;;;;;;8.53;2.57;;;;;;;23.18;24.56;101006.09;4225296;28;20259;-65
2023/05/13 08:59:39;;;;;;;6.70;2.40;;;;;;;23.24;24.80;101010.72;4246923;28;20266;-64
2023/05/13 09:02:07;;;;;;;7.07;2.50;;;;;;;23.24;24.55;101001.56;4242992;28;20243;-63
2023/05/13 09:04:36;;;;;;;7.40;2.67;;;;;;;23.52;25.03;101004.03;4222545;28;21191;-61
2023/05/13 09:07:06;;;;;;;9.90;2.43;;;;;;;23.75;24.28;101008.16;4255426;28;21755;-64
2023/05/13 09:09:33;;;;;;;10.80;2.57;;;;;;;24.05;24.46;100999.28;4230023;28;20471;-61
2023/05/13 09:12:00;;;;;;;7.17;2.43;;;;;;;24.49;24.14;100991.06;4233683;28;20516;-63
2023/05/13 09:14:31;;;;;;;6.90;2.50;;;;;;;24.34;24.20;100996.94;4254775;28;21990;-62
2023/05/13 09:16:57;;;;;;;6.97;2.20;;;;;;;24.29;23.54;101003.13;4230013;28;20413;-63
2023/05/13 09:19:24;;;;;;;11.47;2.40;;;;;;;23.73;23.35;100989.03;4219610;28;20269;-66
2023/05/13 09:21:52;;;;;;;7.93;2.20;;;;;;;23.02;23.75;100981.66;4217008;28;20286;-65
2023/05/13 09:24:20;;;;;;;6.87;2.27;;;;;;;22.72;23.90;100984.94;4240600;28;20236;-65
2023/05/13 09:26:49;;;;;;;2.97;1.70;;;;;;;22.84;23.02;100985.13;4226228;28;21393;-63
2023/05/13 09:29:28;;;;;;;4.20;1.97;;;;;;;22.69;23.05;100983.44;4219185;28;22109;-64
2023/05/13 09:31:59;;;;;;;3.23;1.70;;;;;;;22.49;23.83;100986.22;4212498;28;20359;-63
2023/05/13 09:34:33;;;;;;;2.93;1.70;;;;;;;22.54;23.97;100977.31;4223258;28;20448;-66
2023/05/13 09:37:03;;;;;;;5.27;1.90;;;;;;;22.69;23.54;100972.41;4218984;28;21014;-63
2023/05/13 09:39:32;;;;;;;2.73;1.67;;;;;;;22.69;23.64;100974.31;4226318;28;20929;-65
2023/05/13 09:42:01;;;;;;;5.87;2.10;;;;;;;22.88;24.32;100973.44;4216492;28;21736;-66
2023/05/13 09:44:30;;;;;;;5.83;1.80;;;;;;;23.37;23.50;100971.16;4238378;28;25140;-65
2023/05/13 09:46:57;;;;;;;5.97;2.10;;;;;;;23.00;23.68;100975.50;4198318;28;20247;-64
2023/05/13 09:49:25;;;;;;;6.10;2.10;;;;;;;23.31;23.40;100963.72;4198956;28;20238;-66
2023/05/13 09:51:52;;;;;;;5.27;2.00;;;;;;;23.03;24.17;100972.31;4236885;28;20298;-65
2023/05/13 09:54:18;;;;;;;5.28;2.30;;;;;;;22.83;24.36;100969.63;4246174;28;23694;-65
2023/05/13 09:56:45;;;;;;;5.07;1.87;;;;;;;22.76;24.00;100970.47;4221600;28;20231;-65
2023/05/13 09:59:12;;;;;;;6.93;1.77;;;;;;;22.55;24.01;100965.19;4216467;28;20280;-64
2023/05/13 10:01:39;;;;;;;7.17;1.83;;;;;;;22.25;24.83;100958.19;4212879;28;20255;-64
2023/05/13 10:04:06;;;;;;;4.13;1.83;;;;;;;22.36;24.70;100956.69;4227849;28;21153;-65
2023/05/13 10:06:33;;;;;;;5.47;1.80;;;;;;;21.91;24.68;100956.47;4202015;28;20235;-61
2023/05/13 10:09:03;;;;;;;5.10;2.00;;;;;;;22.24;24.69;100950.13;4218795;28;20248;-63
2023/05/13 10:11:32;;;;;;;8.47;1.90;;;;;;;22.47;24.37;100953.31;4236455;28;20241;-67
2023/05/13 10:14:03;;;;;;;4.13;1.87;;;;;;;22.61;23.86;100937.59;4216829;28;20231;-64
2023/05/13 10:16:30;;;;;;;4.13;1.90;;;;;;;22.60;23.95;100935.91;4229892;28;20301;-64
2023/05/13 10:18:58;;;;;;;8.20;2.43;;;;;;;22.49;24.77;100947.59;4221966;28;20314;-65
2023/05/13 10:21:25;;;;;;;8.43;2.13;;;;;;;22.47;24.34;100945.03;4218285;28;22133;-64
2023/05/13 10:23:52;;;;;;;7.57;1.97;;;;;;;22.50;24.82;100941.03;4219713;28;20275;-62
2023/05/13 10:26:20;;;;;;;5.90;2.03;;;;;;;22.84;24.25;100950.06;4234419;28;20650;-63
2023/05/13 10:28:48;;;;;;;4.97;2.27;;;;;;;22.77;24.80;100944.53;4221669;28;21541;-63
2023/05/13 10:31:16;;;;;;;7.23;2.33;;;;;;;22.89;25.12;100936.44;4230891;28;20413;-61
2023/05/13 10:33:43;;;;;;;6.77;2.20;;;;;;;22.71;24.93;100937.13;4217015;28;20266;-64
2023/05/13 10:36:29;;;;;;;6.43;2.37;;;;;;;23.31;24.38;100938.88;4208991;28;20243;-66
2023/05/13 10:39:23;;;;;;;5.13;2.50;;;;;;;23.05;25.01;100942.56;4218218;28;20236;-65
2023/05/13 10:42:23;;;;;;;5.67;2.37;;;;;;;23.42;25.33;100945.59;4231512;28;20318;-65
2023/05/13 10:44:57;;;;;;;5.90;2.10;;;;;;;23.50;24.96;100937.06;4242270;28;21599;-62
2023/05/13 10:47:23;;;;;;;8.33;2.13;;;;;;;23.50;25.66;100937.06;4248325;28;20405;-64
2023/05/13 10:49:53;;;;;;;9.47;2.30;;;;;;;23.68;25.31;100939.09;4238137;28;20252;-63
2023/05/13 10:52:20;;;;;;;6.47;2.13;;;;;;;23.68;24.59;100935.47;4236714;28;23046;-61
2023/05/13 10:55:03;;;;;;;3.60;1.73;;;;;;;23.47;24.63;100942.19;4214395;28;20228;-64
2023/05/13 10:57:36;;;;;;;5.20;2.40;;;;;;;22.74;24.93;100933.09;4221186;28;20284;-65
2023/05/13 11:00:14;;;;;;;5.33;2.43;;;;;;;22.47;26.21;100934.00;4221463;28;20299;-62
2023/05/13 11:02:41;;;;;;;7.20;2.47;;;;;;;22.59;25.85;100909.34;4222380;28;20352;-64
2023/05/13 11:05:08;;;;;;;5.50;1.93;;;;;;;22.67;25.20;100927.63;4233615;28;20246;-62
2023/05/13 11:07:38;;;;;;;9.07;2.30;;;;;;;22.94;25.06;100933.91;4218046;28;20529;-64
2023/05/13 11:10:24;;;;;;;4.20;2.10;;;;;;;22.93;25.08;100929.44;4231705;28;20228;-63
2023/05/13 11:13:15;;;;;;;7.53;2.00;;;;;;;22.99;24.80;100924.09;4219296;28;20240;-62
2023/05/13 11:15:48;;;;;;;5.03;1.90;;;;;;;22.36;25.64;100929.13;4207219;28;20306;-65
2023/05/13 11:18:14;;;;;;;5.37;1.53;;;;;;;22.66;24.77;100925.91;4214180;28;20236;-63
2023/05/13 11:20:45;;;;;;;2.40;1.80;;;;;;;22.54;25.00;100922.97;4216888;28;20536;-64